Time;durP1;ratioP1;P1;durP2;ratioP2;P2;SDS_P1;SDS_P2;PMS_P1;PMS_P2;Temp;Humidity;BMP_temperature;BMP_pressure;BME280_temperature;BME280_humidity;BME280_pressure;Samples;Min_cycle;Max_cycle;Signal;HPM_P1;HPM_P2
2023/08/31 00:00:35;;;;;;;1.73;0.95;;;20.70;93.30;;;;;;5040342;28;20049;-70
2023/08/31 00:03:02;;;;;;;2.65;1.05;;;20.80;93.70;;;;;;5056951;28;20060;-71
2023/08/31 00:05:30;;;;;;;2.40;0.90;;;20.90;93.40;;;;;;5039900;28;20044;-69
2023/08/31 00:07:56;;;;;;;4.15;1.30;;;20.70;93.30;;;;;;5068009;28;20052;-66
2023/08/31 00:10:23;;;;;;;2.55;1.10;;;20.70;93.30;;;;;;5059756;28;20044;-69
2023/08/31 00:12:49;;;;;;;2.72;1.00;;;20.90;93.40;;;;;;5069173;28;20113;-71
2023/08/31 00:15:15;;;;;;;3.30;1.30;;;;;;;;;;5065564;28;20048;-65
2023/08/31 00:17:41;;;;;;;3.28;1.20;;;20.80;93.50;;;;;;5065437;28;20044;-69
2023/08/31 00:20:11;;;;;;;3.45;1.40;;;20.70;93.30;;;;;;5087997;28;20043;-66
2023/08/31 00:22:37;;;;;;;5.30;1.20;;;20.70;93.30;;;;;;5076367;28;20037;-66
2023/08/31 00:25:05;;;;;;;3.45;1.20;;;20.70;93.30;;;;;;5076404;28;20405;-69
2023/08/31 00:27:31;;;;;;;4.22;1.52;;;20.60;93.30;;;;;;5093618;28;20043;-65
2023/08/31 00:29:58;;;;;;;3.17;1.23;;;20.70;93.30;;;;;;5090044;28;20478;-65
2023/08/31 00:32:24;;;;;;;2.08;1.05;;;20.50;93.10;;;;;;5084594;28;20379;-70
2023/08/31 00:34:50;;;;;;;1.83;1.10;;;20.60;92.30;;;;;;5064631;28;20078;-65
2023/08/31 00:37:16;;;;;;;3.15;1.17;;;;;;;;;;5085642;28;20068;-68
2023/08/31 00:39:43;;;;;;;2.80;1.20;;;20.80;93.40;;;;;;5093038;28;20109;-67
2023/08/31 00:42:09;;;;;;;2.70;1.23;;;20.60;93.30;;;;;;5042190;28;20494;-68
2023/08/31 00:44:35;;;;;;;4.13;1.50;;;20.70;93.40;;;;;;5070577;28;20051;-66
2023/08/31 00:47:02;;;;;;;3.70;1.40;;;20.60;93.30;;;;;;5074908;28;20044;-68
2023/08/31 00:49:28;;;;;;;3.70;1.35;;;20.60;93.30;;;;;;5048783;28;20048;-69
2023/08/31 00:51:53;;;;;;;2.17;1.10;;;20.60;93.30;;;;;;5074745;28;20051;-70
2023/08/31 00:54:21;;;;;;;2.90;1.17;;;20.50;93.30;;;;;;5076607;28;20123;-68
2023/08/31 00:56:46;;;;;;;2.83;1.20;;;20.60;93.30;;;;;;5094507;28;20052;-68
2023/08/31 00:59:14;;;;;;;2.90;1.35;;;20.70;92.30;;;;;;5076135;28;20497;-65
2023/08/31 01:02:03;;;;;;;2.42;1.08;;;20.60;93.30;;;;;;5070493;28;20056;-69
2023/08/31 01:04:47;;;;;;;4.07;1.40;;;20.40;93.60;;;;;;5053178;28;20112;-66
2023/08/31 01:07:21;;;;;;;2.80;1.17;;;20.70;93.30;;;;;;5067776;28;20051;-67
2023/08/31 01:10:06;;;;;;;2.90;1.20;;;20.60;93.30;;;;;;5072386;28;20055;-69
2023/08/31 01:12:37;;;;;;;2.88;1.05;;;20.60;93.30;;;;;;5052414;28;20059;-68
2023/08/31 01:15:07;;;;;;;4.18;1.23;;;20.50;93.40;;;;;;5058959;28;20076;-65
2023/08/31 01:17:33;;;;;;;3.17;1.40;;;20.60;93.30;;;;;;5039679;28;20053;-65
2023/08/31 01:20:00;;;;;;;3.88;1.20;;;20.60;93.30;;;;;;5049134;28;20051;-65
2023/08/31 01:22:57;;;;;;;5.90;1.45;;;20.60;93.30;;;;;;5068896;28;20052;-70
2023/08/31 01:25:24;;;;;;;2.83;1.17;;;20.50;93.30;;;;;;5053591;28;20040;-67
2023/08/31 01:27:50;;;;;;;2.97;1.15;;;20.60;93.30;;;;;;5051583;28;20498;-65
2023/08/31 01:30:15;;;;;;;3.80;1.52;;;20.70;92.30;;;;;;5052419;28;20044;-64
2023/08/31 01:32:47;;;;;;;4.10;1.25;;;20.50;93.20;;;;;;5066660;28;20040;-65
2023/08/31 01:35:14;;;;;;;3.40;1.23;;;20.40;93.60;;;;;;5072043;28;20040;-65
2023/08/31 01:38:01;;;;;;;4.65;1.23;;;20.50;93.20;;;;;;5053758;28;20398;-65
2023/08/31 01:40:40;;;;;;;2.90;1.13;;;20.60;93.30;;;;;;5063433;28;20040;-65
2023/08/31 01:43:06;;;;;;;2.13;1.05;;;20.50;93.30;;;;;;5034385;28;20115;-70
2023/08/31 01:45:33;;;;;;;2.00;1.10;;;20.50;93.30;;;;;;5060635;28;20036;-66
2023/08/31 01:47:59;;;;;;;3.50;1.20;;;20.50;93.30;;;;;;5073029;28;20044;-65
2023/08/31 01:50:25;;;;;;;2.92;1.15;;;20.50;93.30;;;;;;5068528;28;20086;-67
2023/08/31 01:52:53;;;;;;;3.22;1.17;;;20.50;93.30;;;;;;5062379;28;20398;-68
2023/08/31 01:55:19;;;;;;;3.28;1.13;;;20.50;93.30;;;;;;5051780;28;20044;-65
2023/08/31 01:57:44;;;;;;;4.20;1.27;;;20.40;93.30;;;;;;5036650;28;20506;-65
2023/08/31 02:00:11;;;;;;;4.32;0.90;;;20.60;93.20;;;;;;5059234;28;20483;-66
2023/08/31 02:02:37;;;;;;;3.22;1.23;;;;;;;;;;5073450;28;20056;-65
2023/08/31 02:05:04;;;;;;;2.42;1.10;;;20.40;93.20;;;;;;5087945;28;20040;-66
2023/08/31 02:07:30;;;;;;;6.88;1.10;;;20.60;93.20;;;;;;5090719;28;20538;-66
2023/08/31 02:09:56;;;;;;;3.50;1.23;;;20.40;93.20;;;;;;5075129;28;20072;-67
2023/08/31 02:12:22;;;;;;;3.08;1.00;;;20.40;93.20;;;;;;5068035;28;20142;-65
2023/08/31 02:14:48;;;;;;;4.55;1.38;;;20.50;93.20;;;;;;5085270;28;20121;-63
2023/08/31 02:17:13;;;;;;;3.45;0.98;;;20.40;93.10;;;;;;5090959;28;20509;-64
2023/08/31 02:19:39;;;;;;;4.13;1.10;;;20.40;93.10;;;;;;5089396;28;20045;-64
2023/08/31 02:22:05;;;;;;;2.92;1.00;;;20.50;93.20;;;;;;5074927;28;20052;-65
2023/08/31 02:24:30;;;;;;;2.00;0.90;;;20.40;93.20;;;;;;5091291;28;20495;-66
2023/08/31 02:26:56;;;;;;;3.35;1.05;;;20.50;93.20;;;;;;5092483;28;20044;-65
2023/08/31 02:29:22;;;;;;;3.92;1.10;;;;;;;;;;5078249;28;20087;-64
2023/08/31 02:31:48;;;;;;;3.72;1.27;;;20.30;93.10;;;;;;5073308;28;20121;-63
2023/08/31 02:34:14;;;;;;;2.13;0.80;;;20.30;93.10;;;;;;5092794;28;20397;-65
2023/08/31 02:36:40;;;;;;;2.63;1.10;;;20.40;93.10;;;;;;5057731;28;20043;-64
2023/08/31 02:39:06;;;;;;;3.90;1.10;;;;;;;;;;5092757;28;20082;-63
2023/08/31 02:41:32;;;;;;;3.58;1.10;;;20.50;93.20;;;;;;5060837;28;20051;-64
2023/08/31 02:43:57;;;;;;;4.55;1.38;;;20.40;93.10;;;;;;5079346;28;20513;-71
2023/08/31 02:46:24;;;;;;;2.95;1.13;;;20.30;93.10;;;;;;5074619;28;20070;-69
2023/08/31 02:48:50;;;;;;;4.93;1.38;;;20.20;93.10;;;;;;5087202;28;20504;-71
2023/08/31 02:51:16;;;;;;;3.85;1.30;;;20.40;93.20;;;;;;5080425;28;20048;-69
2023/08/31 02:53:41;;;;;;;3.80;1.30;;;20.30;93.20;;;;;;5072468;28;20448;-70
2023/08/31 02:56:07;;;;;;;2.72;1.00;;;20.20;93.10;;;;;;5076876;28;20541;-67
2023/08/31 02:58:33;;;;;;;2.15;1.02;;;20.30;93.10;;;;;;5072666;28;20493;-69
2023/08/31 03:01:12;;;;;;;2.65;0.90;;;20.50;91.40;;;;;;5075682;28;20129;-71
2023/08/31 03:03:39;;;;;;;3.17;1.02;;;20.30;93.20;;;;;;5071030;28;20148;-69
2023/08/31 03:06:07;;;;;;;2.08;0.98;;;20.30;93.20;;;;;;5054913;28;20482;-71
2023/08/31 03:08:32;;;;;;;1.83;1.10;;;20.30;93.20;;;;;;5043740;28;20098;-69
2023/08/31 03:10:59;;;;;;;4.43;1.10;;;20.20;93.10;;;;;;5089010;28;20137;-69
2023/08/31 03:13:24;;;;;;;3.83;1.20;;;20.30;93.20;;;;;;5058134;28;20499;-72
2023/08/31 03:15:50;;;;;;;4.13;1.10;;;20.30;93.20;;;;;;5057416;28;20052;-68
2023/08/31 03:18:16;;;;;;;2.58;0.82;;;20.20;93.20;;;;;;5059312;28;20097;-69
2023/08/31 03:20:42;;;;;;;2.58;1.00;;;20.30;93.20;;;;;;5055544;28;20111;-71
2023/08/31 03:23:09;;;;;;;3.08;1.20;;;20.40;93.40;;;;;;5071820;28;20044;-68
2023/08/31 03:25:35;;;;;;;2.90;1.00;;;20.40;92.20;;;;;;5084726;28;20044;-68
2023/08/31 03:28:00;;;;;;;2.67;1.00;;;20.20;92.50;;;;;;5065577;28;20055;-66
2023/08/31 03:30:26;;;;;;;3.08;0.93;;;20.30;93.10;;;;;;5061660;28;20048;-68
2023/08/31 03:32:52;;;;;;;3.45;1.10;;;20.40;93.10;;;;;;5059344;28;20072;-68
2023/08/31 03:35:18;;;;;;;2.80;1.13;;;20.20;93.10;;;;;;5089805;28;20040;-68
2023/08/31 03:37:47;;;;;;;2.72;1.05;;;20.30;93.10;;;;;;5075841;28;20040;-69
2023/08/31 03:40:13;;;;;;;4.22;1.17;;;20.40;93.40;;;;;;5058189;28;20052;-68
2023/08/31 03:42:39;;;;;;;5.50;1.17;;;20.20;93.00;;;;;;5057861;28;20044;-69
2023/08/31 03:45:05;;;;;;;3.05;1.30;;;20.20;93.00;;;;;;5082535;28;20036;-66
2023/08/31 03:47:31;;;;;;;2.38;1.00;;;20.10;91.80;;;;;;5089820;28;20138;-69
2023/08/31 03:49:56;;;;;;;2.95;1.02;;;20.20;93.00;;;;;;5056561;28;20064;-70
2023/08/31 03:52:23;;;;;;;2.97;1.20;;;20.20;93.00;;;;;;5075193;28;20367;-69
2023/08/31 03:54:49;;;;;;;1.83;0.90;;;20.20;93.00;;;;;;5075254;28;20098;-69
2023/08/31 03:57:15;;;;;;;2.53;0.98;;;20.20;92.90;;;;;;5056989;28;20043;-70
2023/08/31 03:59:40;;;;;;;3.30;1.33;;;20.20;92.90;;;;;;5075671;28;20127;-67
2023/08/31 04:02:06;;;;;;;3.60;1.23;;;20.30;91.90;;;;;;5072955;28;20173;-66
2023/08/31 04:04:33;;;;;;;3.55;1.52;;;20.10;91.40;;;;;;5077637;28;20143;-69
2023/08/31 04:06:59;;;;;;;2.47;1.10;;;20.20;92.90;;;;;;5057136;28;20044;-67
2023/08/31 04:09:25;;;;;;;4.65;1.13;;;20.10;92.90;;;;;;5075273;28;20469;-69
2023/08/31 04:11:51;;;;;;;3.45;1.00;;;20.10;92.90;;;;;;5067858;28;20082;-67
2023/08/31 04:14:18;;;;;;;4.78;1.77;;;;;;;;;;5043247;28;20051;-67
2023/08/31 04:16:45;;;;;;;3.65;1.20;;;20.10;92.90;;;;;;5077944;28;20036;-67
2023/08/31 04:19:10;;;;;;;5.10;1.25;;;20.10;92.90;;;;;;5057130;28;20515;-67
2023/08/31 04:21:37;;;;;;;4.70;1.55;;;20.10;92.90;;;;;;5075316;28;20051;-69
2023/08/31 04:24:03;;;;;;;4.43;1.30;;;20.20;92.90;;;;;;5056349;28;20066;-67
2023/08/31 04:26:29;;;;;;;3.55;1.15;;;20.10;92.90;;;;;;5056720;28;20390;-68
2023/08/31 04:28:56;;;;;;;3.10;1.15;;;20.10;92.90;;;;;;5056633;28;20052;-69
2023/08/31 04:31:22;;;;;;;4.38;1.63;;;20.10;92.80;;;;;;5065843;28;20410;-65
2023/08/31 04:33:48;;;;;;;3.70;1.40;;;20.10;92.80;;;;;;5053922;28;20037;-65
2023/08/31 04:36:13;;;;;;;3.58;1.52;;;20.10;92.80;;;;;;5090444;28;20134;-69
2023/08/31 04:38:39;;;;;;;4.03;1.35;;;20.10;92.80;;;;;;5082988;28;20123;-70
2023/08/31 04:41:05;;;;;;;4.20;1.30;;;20.10;92.80;;;;;;5042201;28;20036;-63
2023/08/31 04:43:31;;;;;;;4.53;1.50;;;20.00;91.70;;;;;;5077138;28;20459;-63
2023/08/31 04:45:57;;;;;;;3.28;1.30;;;20.20;92.90;;;;;;5094386;28;20075;-69
2023/08/31 04:48:23;;;;;;;3.95;1.58;;;20.10;92.90;;;;;;5046049;28;20050;-69
2023/08/31 04:50:48;;;;;;;4.25;1.70;;;20.00;92.80;;;;;;5076371;28;20113;-67
2023/08/31 04:53:14;;;;;;;4.22;1.20;;;20.20;92.90;;;;;;5042144;28;20101;-69
2023/08/31 04:55:40;;;;;;;3.67;1.20;;;20.00;92.80;;;;;;5090655;28;20040;-65
2023/08/31 04:58:06;;;;;;;2.40;1.25;;;19.90;92.80;;;;;;5076216;28;20047;-67
2023/08/31 05:00:31;;;;;;;4.72;1.60;;;20.20;92.90;;;;;;5059395;28;20101;-67
2023/08/31 05:02:57;;;;;;;3.83;1.40;;;20.10;92.80;;;;;;5076408;28;20397;-68
2023/08/31 05:05:23;;;;;;;3.58;1.38;;;20.00;92.70;;;;;;5075295;28;20044;-66
2023/08/31 05:07:49;;;;;;;2.80;1.30;;;20.20;93.00;;;;;;5059559;28;20043;-67
2023/08/31 05:10:15;;;;;;;3.35;1.42;;;20.10;92.80;;;;;;5058922;28;20051;-67
2023/08/31 05:12:40;;;;;;;3.35;1.27;;;20.10;92.80;;;;;;5075800;28;20048;-65
2023/08/31 05:15:07;;;;;;;4.75;1.40;;;20.20;92.80;;;;;;5075812;28;20044;-66
2023/08/31 05:17:33;;;;;;;3.53;1.38;;;20.20;92.80;;;;;;5069405;28;20040;-67
2023/08/31 05:19:59;;;;;;;2.85;1.08;;;20.30;92.90;;;;;;5084176;28;20070;-67
2023/08/31 05:22:25;;;;;;;3.70;1.30;;;;;;;;;;5091603;28;20056;-65
2023/08/31 05:24:51;;;;;;;3.78;1.42;;;20.20;92.80;;;;;;5093768;28;20054;-65
2023/08/31 05:27:17;;;;;;;2.63;1.20;;;;;;;;;;5091111;28;20044;-66
2023/08/31 05:29:43;;;;;;;2.95;1.35;;;20.10;92.80;;;;;;5090443;28;21545;-66
2023/08/31 05:32:09;;;;;;;3.50;1.40;;;20.20;92.70;;;;;;5073417;28;20041;-65
2023/08/31 05:34:37;;;;;;;3.20;1.20;;;20.30;92.80;;;;;;5072312;28;20137;-65
2023/08/31 05:37:04;;;;;;;3.13;1.33;;;20.40;92.70;;;;;;5082943;28;20044;-66
2023/08/31 05:39:30;;;;;;;2.35;1.05;;;20.40;92.70;;;;;;5080482;28;20824;-66
2023/08/31 05:41:56;;;;;;;3.35;1.25;;;20.50;92.70;;;;;;5091847;28;20130;-66
2023/08/31 05:44:22;;;;;;;2.58;1.20;;;20.50;92.60;;;;;;5074668;28;20087;-66
2023/08/31 05:46:48;;;;;;;2.45;1.20;;;20.60;92.50;;;;;;5073132;28;20055;-65
2023/08/31 05:49:14;;;;;;;4.93;1.25;;;20.70;92.70;;;;;;5073401;28;20048;-69
2023/08/31 05:51:40;;;;;;;3.05;1.10;;;20.80;92.50;;;;;;5073272;28;20048;-66
2023/08/31 05:54:10;;;;;;;3.20;1.25;;;20.80;92.40;;;;;;5055270;28;20056;-67
2023/08/31 05:56:36;;;;;;;2.90;1.20;;;21.00;92.30;;;;;;5074281;28;20464;-64
2023/08/31 05:59:02;;;;;;;2.83;1.27;;;21.00;92.20;;;;;;5081996;28;20485;-64
2023/08/31 06:01:28;;;;;;;2.03;1.00;;;21.00;92.10;;;;;;5072829;28;20063;-65
2023/08/31 06:03:53;;;;;;;3.15;1.23;;;21.10;92.00;;;;;;5073888;28;20451;-64
2023/08/31 06:06:19;;;;;;;2.83;1.02;;;21.20;92.00;;;;;;5072333;28;20123;-64
2023/08/31 06:08:45;;;;;;;2.78;1.30;;;21.40;91.80;;;;;;5075450;28;20040;-64
2023/08/31 06:11:13;;;;;;;1.35;0.93;;;21.50;91.70;;;;;;5074425;28;20048;-65
2023/08/31 06:13:39;;;;;;;2.85;1.00;;;21.50;91.50;;;;;;5068370;28;20056;-63
2023/08/31 06:16:04;;;;;;;2.63;1.17;;;21.50;91.40;;;;;;5083041;28;20044;-75
2023/08/31 06:18:30;;;;;;;3.85;1.30;;;21.60;90.30;;;;;;5090280;28;20181;-72
2023/08/31 06:20:56;;;;;;;4.68;1.60;;;21.70;91.00;;;;;;5074421;28;20085;-67
2023/08/31 06:23:22;;;;;;;6.45;1.88;;;21.90;90.90;;;;;;5074791;28;20075;-72
2023/08/31 06:25:48;;;;;;;5.90;1.90;;;21.70;90.60;;;;;;5083006;28;20046;-71
2023/08/31 06:28:13;;;;;;;4.05;1.60;;;21.80;90.50;;;;;;5072849;28;20507;-70
2023/08/31 06:30:44;;;;;;;3.85;1.90;;;21.90;88.90;;;;;;5087733;28;20109;-72
2023/08/31 06:33:10;;;;;;;4.38;1.80;;;22.10;90.20;;;;;;5054440;28;20052;-72
2023/08/31 06:35:37;;;;;;;3.92;1.95;;;22.00;88.20;;;;;;5072631;28;20124;-71
2023/08/31 06:38:03;;;;;;;5.40;2.13;;;22.10;90.10;;;;;;5068791;28;20129;-71
2023/08/31 06:40:28;;;;;;;4.22;1.90;;;22.10;89.60;;;;;;5071028;28;20485;-73
2023/08/31 06:42:54;;;;;;;4.47;2.05;;;22.20;89.10;;;;;;5054067;28;20072;-73
2023/08/31 06:45:20;;;;;;;5.10;2.17;;;22.00;86.90;;;;;;5054735;28;20049;-72
2023/08/31 06:47:46;;;;;;;5.15;1.80;;;22.30;86.80;;;;;;5054228;28;20094;-72
2023/08/31 06:50:12;;;;;;;5.05;2.08;;;22.30;88.60;;;;;;5073373;28;20054;-68
2023/08/31 06:52:37;;;;;;;6.20;2.20;;;22.40;88.40;;;;;;5078543;28;20485;-64
2023/08/31 06:55:05;;;;;;;4.65;2.10;;;22.50;86.20;;;;;;5079568;28;20043;-72
2023/08/31 06:57:31;;;;;;;5.88;2.10;;;22.70;86.10;;;;;;5065846;28;20055;-74
2023/08/31 06:59:57;;;;;;;6.18;2.10;;;22.50;86.00;;;;;;5077694;28;20045;-69
2023/08/31 07:02:26;;;;;;;4.63;1.85;;;22.50;88.10;;;;;;5053963;28;20453;-73
2023/08/31 07:04:52;;;;;;;6.18;2.05;;;22.40;85.60;;;;;;5083535;28;20501;-73
2023/08/31 07:07:18;;;;;;;5.20;1.60;;;22.80;88.30;;;;;;5071756;28;20421;-70
2023/08/31 07:09:45;;;;;;;4.15;1.50;;;22.80;88.30;;;;;;5083100;28;20043;-73
2023/08/31 07:12:11;;;;;;;5.15;1.70;;;22.70;85.60;;;;;;5089206;28;20040;-74
2023/08/31 07:14:37;;;;;;;6.13;1.48;;;23.20;85.40;;;;;;5077417;28;20094;-61
2023/08/31 07:17:03;;;;;;;4.00;1.33;;;22.70;85.10;;;;;;5086034;28;20385;-74
2023/08/31 07:19:29;;;;;;;4.40;1.58;;;23.00;87.00;;;;;;5086497;28;20044;-72
2023/08/31 07:21:54;;;;;;;4.03;1.63;;;22.80;86.90;;;;;;5076502;28;20059;-73
2023/08/31 07:24:22;;;;;;;5.53;1.52;;;22.90;86.70;;;;;;5085922;28;20056;-74
2023/08/31 07:26:48;;;;;;;5.07;1.27;;;23.00;84.90;;;;;;5081817;28;20053;-72
2023/08/31 07:29:14;;;;;;;5.93;1.70;;;23.10;84.80;;;;;;5076740;28;20048;-69
2023/08/31 07:31:40;;;;;;;4.30;1.40;;;23.10;84.60;;;;;;5083767;28;20403;-62
2023/08/31 07:34:06;;;;;;;5.63;1.55;;;23.20;84.50;;;;;;5071827;28;20052;-61
2023/08/31 07:36:32;;;;;;;4.00;1.20;;;23.00;84.70;;;;;;5073003;28;20074;-68
2023/08/31 07:38:57;;;;;;;5.10;1.58;;;23.10;84.60;;;;;;5053832;28;20509;-73
2023/08/31 07:41:23;;;;;;;4.85;1.48;;;23.20;86.90;;;;;;5037601;28;20092;-73
2023/08/31 07:43:49;;;;;;;3.88;1.33;;;23.20;84.50;;;;;;5037765;28;20152;-68
2023/08/31 07:46:15;;;;;;;4.88;1.40;;;25.40;85.90;;;;;;5049173;28;20044;-71
2023/08/31 07:48:42;;;;;;;5.80;1.42;;;23.50;84.70;;;;;;5024074;28;20048;-68
2023/08/31 07:51:08;;;;;;;4.20;1.40;;;23.20;86.80;;;;;;5058667;28;20053;-63
2023/08/31 07:53:34;;;;;;;2.65;1.17;;;23.30;84.10;;;;;;5054151;28;20056;-60
2023/08/31 07:56:00;;;;;;;5.03;1.33;;;23.40;84.40;;;;;;5053047;28;20047;-61
2023/08/31 07:58:26;;;;;;;3.65;1.15;;;23.70;84.30;;;;;;5052164;28;20078;-61
2023/08/31 08:00:55;;;;;;;6.82;2.00;;;23.60;84.20;;;;;;5095237;28;20543;-68
2023/08/31 08:03:22;;;;;;;3.63;1.30;;;23.30;84.10;;;;;;5077464;28;20428;-64
2023/08/31 08:05:48;;;;;;;4.47;1.23;;;23.60;84.20;;;;;;5030408;28;20119;-73
2023/08/31 08:08:14;;;;;;;4.57;1.23;;;23.40;85.80;;;;;;5046063;28;20462;-63
2023/08/31 08:10:39;;;;;;;4.03;1.25;;;23.40;83.60;;;;;;5083602;28;20064;-63
2023/08/31 08:13:05;;;;;;;4.75;1.40;;;23.60;83.80;;;;;;5074825;28;20059;-66
2023/08/31 08:15:31;;;;;;;4.70;1.42;;;23.70;84.00;;;;;;5041136;28;20044;-65
2023/08/31 08:17:57;;;;;;;3.78;1.40;;;23.50;84.10;;;;;;5074866;28;20056;-63
2023/08/31 08:20:23;;;;;;;5.63;1.45;;;23.70;84.00;;;;;;5074699;28;20048;-62
2023/08/31 08:22:52;;;;;;;3.15;1.30;;;23.80;84.10;;;;;;5090022;28;20214;-62
2023/08/31 08:25:21;;;;;;;5.20;1.42;;;23.60;84.10;;;;;;5094011;28;20374;-65
2023/08/31 08:27:47;;;;;;;7.05;1.58;;;23.80;84.20;;;;;;5087856;28;20055;-69
2023/08/31 08:30:14;;;;;;;4.15;1.50;;;23.80;83.90;;;;;;5056151;28;20049;-63
2023/08/31 08:32:39;;;;;;;3.97;1.23;;;23.80;84.00;;;;;;5078140;28;20048;-65
2023/08/31 08:35:05;;;;;;;4.10;1.33;;;23.70;83.60;;;;;;5085491;28;20056;-67
2023/08/31 08:37:34;;;;;;;3.47;1.30;;;24.10;83.50;;;;;;5083057;28;20177;-66
2023/08/31 08:40:00;;;;;;;4.47;1.30;;;24.00;83.80;;;;;;5068505;28;20044;-65
2023/08/31 08:42:26;;;;;;;4.70;1.05;;;23.90;83.80;;;;;;5074460;28;20393;-66
2023/08/31 08:44:52;;;;;;;3.75;1.20;;;23.80;83.70;;;;;;5061313;28;20044;-65
2023/08/31 08:47:18;;;;;;;5.13;1.33;;;24.00;83.70;;;;;;5094710;28;20050;-63
2023/08/31 08:49:44;;;;;;;4.88;1.30;;;24.00;83.70;;;;;;5086843;28;20075;-64
2023/08/31 08:52:10;;;;;;;3.72;1.30;;;23.70;83.60;;;;;;5024070;28;20521;-63
2023/08/31 08:54:37;;;;;;;2.78;1.08;;;23.80;83.70;;;;;;5081251;28;20050;-63
2023/08/31 08:57:03;;;;;;;3.80;1.23;;;24.10;84.10;;;;;;5064156;28;20041;-64
2023/08/31 08:59:30;;;;;;;2.72;1.05;;;24.20;83.70;;;;;;5074277;28;20048;-65
2023/08/31 09:01:56;;;;;;;2.88;1.00;;;23.90;83.90;;;;;;5068172;28;20057;-63
2023/08/31 09:04:22;;;;;;;2.45;1.10;;;23.80;83.60;;;;;;5074200;28;20089;-65
2023/08/31 09:06:48;;;;;;;2.85;1.10;;;23.70;83.70;;;;;;5084250;28;20086;-63
2023/08/31 09:09:14;;;;;;;2.13;0.80;;;23.80;83.80;;;;;;5073682;28;20448;-62
2023/08/31 09:11:39;;;;;;;3.47;1.00;;;23.80;83.80;;;;;;5076621;28;20127;-66
2023/08/31 09:14:18;;;;;;;4.40;1.20;;;23.70;83.90;;;;;;5073412;28;20123;-65
2023/08/31 09:16:50;;;;;;;3.83;1.20;;;23.60;84.20;;;;;;5076447;28;20074;-67
2023/08/31 09:19:23;;;;;;;3.10;1.13;;;24.10;82.90;;;;;;5076642;28;20050;-65
2023/08/31 09:21:52;;;;;;;4.20;1.25;;;23.70;84.20;;;;;;5077070;28;20115;-65
2023/08/31 09:24:18;;;;;;;3.58;1.35;;;23.80;82.50;;;;;;5081244;28;20044;-63
2023/08/31 09:26:48;;;;;;;2.85;1.10;;;23.70;83.50;;;;;;5077777;28;20389;-64
2023/08/31 09:29:14;;;;;;;2.17;0.90;;;23.90;83.90;;;;;;5073260;28;20044;-66
2023/08/31 09:31:46;;;;;;;3.45;1.15;;;23.80;83.60;;;;;;5086390;28;20127;-66
2023/08/31 09:34:12;;;;;;;3.95;1.15;;;23.90;84.00;;;;;;5091893;28;20055;-62
2023/08/31 09:36:38;;;;;;;3.10;1.00;;;23.70;87.10;;;;;;5062172;28;20367;-63
2023/08/31 09:39:05;;;;;;;3.15;1.05;;;23.90;83.90;;;;;;5073510;28;20106;-62
2023/08/31 09:41:31;;;;;;;3.17;1.00;;;23.70;84.10;;;;;;5067315;28;20040;-62
2023/08/31 09:44:04;;;;;;;2.70;0.95;;;23.80;84.10;;;;;;5092584;28;20047;-62
2023/08/31 09:46:30;;;;;;;4.07;1.20;;;23.50;84.40;;;;;;5070327;28;20558;-63
2023/08/31 09:48:56;;;;;;;2.25;0.90;;;23.40;84.00;;;;;;5077747;28;20057;-64
2023/08/31 09:51:23;;;;;;;3.58;1.10;;;23.50;84.00;;;;;;5057189;28;20074;-63
2023/08/31 09:53:49;;;;;;;2.65;0.93;;;23.40;84.20;;;;;;5077338;28;20640;-63
2023/08/31 09:56:18;;;;;;;2.65;1.10;;;23.60;87.50;;;;;;5073443;28;20040;-64
2023/08/31 09:58:43;;;;;;;3.22;1.13;;;23.70;84.40;;;;;;5064065;28;20045;-63
2023/08/31 10:01:09;;;;;;;2.50;1.08;;;23.60;84.10;;;;;;5067569;28;20120;-63
2023/08/31 10:03:35;;;;;;;2.85;0.80;;;23.50;83.90;;;;;;5090935;28;20051;-67
2023/08/31 10:06:01;;;;;;;2.90;0.93;;;23.80;84.20;;;;;;5069700;28;20486;-62
2023/08/31 10:08:31;;;;;;;2.33;0.70;;;23.60;84.20;;;;;;5054940;28;20067;-63
2023/08/31 10:11:03;;;;;;;2.10;0.77;;;23.70;87.50;;;;;;5057988;28;20048;-61
2023/08/31 10:13:31;;;;;;;2.70;0.75;;;23.30;84.40;;;;;;5039401;28;20110;-62
2023/08/31 10:15:57;;;;;;;3.60;1.10;;;23.10;87.20;;;;;;5072345;28;20048;-62
2023/08/31 10:18:23;;;;;;;2.55;0.80;;;23.20;84.30;;;;;;5074700;28;20516;-63
2023/08/31 10:20:49;;;;;;;1.55;0.75;;;23.40;84.40;;;;;;5089168;28;20117;-64
2023/08/31 10:23:14;;;;;;;2.70;0.98;;;23.10;84.30;;;;;;5091279;28;20044;-65
2023/08/31 10:26:04;;;;;;;1.60;0.80;;;23.30;84.60;;;;;;5089496;28;20040;-62
2023/08/31 10:28:30;;;;;;;3.78;1.10;;;23.40;85.10;;;;;;5075304;28;20584;-65
2023/08/31 10:31:17;;;;;;;3.53;1.10;;;23.10;84.40;;;;;;5072785;28;20094;-67
2023/08/31 10:33:57;;;;;;;2.38;0.88;;;23.10;84.80;;;;;;5092507;28;20160;-71
2023/08/31 10:36:34;;;;;;;2.20;0.70;;;23.40;85.10;;;;;;5090733;28;20040;-66
2023/08/31 10:39:00;;;;;;;2.35;1.00;;;23.30;84.70;;;;;;5041132;28;20126;-63
2023/08/31 10:41:35;;;;;;;2.78;1.05;;;23.20;84.60;;;;;;5072156;28;20048;-72
2023/08/31 10:44:01;;;;;;;2.53;1.10;;;23.10;83.50;;;;;;5050043;28;20048;-70
2023/08/31 10:46:39;;;;;;;3.20;0.90;;;23.20;84.70;;;;;;5074887;28;20066;-64
2023/08/31 10:49:11;;;;;;;4.13;1.05;;;23.10;83.70;;;;;;5063300;28;20568;-63
2023/08/31 10:51:53;;;;;;;2.65;0.80;;;23.10;85.10;;;;;;5075114;28;20513;-68
2023/08/31 10:54:18;;;;;;;3.67;0.88;;;23.00;85.50;;;;;;5048715;28;20044;-64
2023/08/31 10:57:10;;;;;;;2.78;0.90;;;23.40;85.00;;;;;;5063466;28;20050;-64
2023/08/31 10:59:52;;;;;;;2.70;0.90;;;22.90;84.40;;;;;;5067935;28;20052;-68
2023/08/31 11:02:34;;;;;;;2.30;0.85;;;23.30;86.20;;;;;;5083317;28;20052;-65
2023/08/31 11:05:16;;;;;;;2.57;1.10;;;23.20;85.80;;;;;;5047840;28;20055;-66
2023/08/31 11:07:49;;;;;;;1.98;0.88;;;23.30;86.00;;;;;;5072921;28;20063;-61
2023/08/31 11:10:19;;;;;;;2.30;0.93;;;23.50;84.30;;;;;;5089914;28;20048;-62
2023/08/31 11:12:52;;;;;;;2.85;0.88;;;23.30;85.70;;;;;;5089179;28;20056;-66
2023/08/31 11:15:20;;;;;;;2.85;0.95;;;23.40;84.40;;;;;;5057409;28;20101;-65
2023/08/31 11:17:46;;;;;;;4.00;1.02;;;23.20;85.70;;;;;;5067166;28;20063;-66
2023/08/31 11:20:16;;;;;;;2.17;0.90;;;23.20;85.50;;;;;;5079115;28;20043;-62
2023/08/31 11:22:43;;;;;;;3.13;1.08;;;23.20;85.80;;;;;;5071074;28;20105;-63
2023/08/31 11:25:09;;;;;;;2.33;0.80;;;23.30;85.80;;;;;;5072589;28;20043;-63
2023/08/31 11:27:34;;;;;;;3.38;1.00;;;23.10;85.70;;;;;;5090344;28;20070;-65
2023/08/31 11:30:00;;;;;;;1.58;0.65;;;23.30;85.50;;;;;;5091836;28;20052;-64
2023/08/31 11:32:26;;;;;;;5.63;1.00;;;23.30;85.80;;;;;;5081523;28;20033;-67
2023/08/31 11:34:52;;;;;;;3.08;1.00;;;23.20;85.80;;;;;;5081050;28;20052;-62
2023/08/31 11:37:19;;;;;;;3.40;1.23;;;23.10;89.10;;;;;;5090252;28;20040;-63
2023/08/31 11:39:52;;;;;;;2.67;0.95;;;23.20;86.00;;;;;;5080441;28;20498;-63
2023/08/31 11:42:19;;;;;;;2.70;0.90;;;22.90;86.20;;;;;;5094979;28;20044;-62
2023/08/31 11:44:48;;;;;;;3.83;1.00;;;23.20;86.30;;;;;;5082799;28;20050;-67
2023/08/31 11:47:14;;;;;;;3.00;0.95;;;23.00;88.70;;;;;;5053732;28;20079;-62
2023/08/31 11:49:41;;;;;;;2.25;0.90;;;23.00;85.90;;;;;;5064201;28;20084;-66
2023/08/31 11:52:08;;;;;;;2.88;0.90;;;23.00;86.30;;;;;;5067027;28;20043;-65
2023/08/31 11:54:38;;;;;;;3.60;1.10;;;23.00;86.30;;;;;;5053299;28;20098;-66
2023/08/31 11:57:06;;;;;;;4.53;1.50;;;23.10;86.50;;;;;;5042638;28;20071;-64
2023/08/31 11:59:31;;;;;;;3.08;1.13;;;23.10;86.10;;;;;;5077147;28;20062;-62
2023/08/31 12:01:58;;;;;;;4.45;1.23;;;23.30;86.30;;;;;;5057690;28;20553;-63
2023/08/31 12:04:24;;;;;;;3.60;1.08;;;23.10;86.10;;;;;;5092258;28;20178;-63
2023/08/31 12:06:51;;;;;;;3.55;1.10;;;23.00;88.80;;;;;;5073692;28;20109;-66
2023/08/31 12:09:17;;;;;;;2.42;1.00;;;22.90;86.30;;;;;;5060472;28;20379;-67
2023/08/31 12:11:49;;;;;;;4.25;1.13;;;23.30;86.10;;;;;;5083214;28;20094;-69
2023/08/31 12:14:26;;;;;;;4.03;1.20;;;23.10;86.20;;;;;;5041346;28;20391;-69
2023/08/31 12:16:53;;;;;;;3.33;1.02;;;23.10;89.10;;;;;;5040485;28;20051;-71
2023/08/31 12:19:19;;;;;;;3.78;1.30;;;22.90;86.20;;;;;;5040559;28;20105;-65
2023/08/31 12:21:46;;;;;;;2.95;1.08;;;23.10;85.90;;;;;;5085929;28;20043;-65
2023/08/31 12:24:12;;;;;;;3.63;0.90;;;22.90;89.60;;;;;;5061438;28;20144;-66
2023/08/31 12:26:38;;;;;;;4.32;1.10;;;23.00;86.20;;;;;;5082534;28;20444;-72
2023/08/31 12:29:04;;;;;;;1.38;0.80;;;23.00;86.30;;;;;;5040060;28;20037;-68
2023/08/31 12:31:31;;;;;;;4.38;1.20;;;22.80;86.30;;;;;;5053835;28;20105;-69
2023/08/31 12:33:58;;;;;;;4.70;1.42;;;23.00;89.60;;;;;;5049764;28;20100;-66
2023/08/31 12:36:23;;;;;;;4.00;1.27;;;22.70;86.40;;;;;;5085872;28;20485;-72
2023/08/31 12:38:50;;;;;;;3.50;1.33;;;23.00;86.40;;;;;;5059670;28;20070;-66
2023/08/31 12:41:17;;;;;;;3.47;1.40;;;22.90;89.90;;;;;;5074109;28;20474;-66
2023/08/31 12:43:43;;;;;;;3.70;1.10;;;22.80;86.60;;;;;;5077142;28;20056;-62
2023/08/31 12:46:09;;;;;;;2.70;1.00;;;22.70;86.50;;;;;;5088138;28;20044;-65
2023/08/31 12:48:35;;;;;;;5.30;1.50;;;22.80;86.50;;;;;;5082893;28;20385;-63
2023/08/31 12:51:01;;;;;;;3.78;1.20;;;22.90;86.70;;;;;;5076109;28;20045;-63